sensor_id;sensor_type;location;lat;lon;timestamp;P1;durP1;ratioP1;P2;durP2;ratioP2
52354;SDS011;38286;51.156;17.038;2023-12-14T00:01:21;111.75;;;42.70;;
52354;SDS011;38286;51.156;17.038;2023-12-14T00:03:48;104.20;;;40.45;;
52354;SDS011;38286;51.156;17.038;2023-12-14T00:06:14;111.10;;;42.88;;
52354;SDS011;38286;51.156;17.038;2023-12-14T00:08:40;115.95;;;42.28;;
52354;SDS011;38286;51.156;17.038;2023-12-14T00:11:06;105.15;;;41.20;;
52354;SDS011;38286;51.156;17.038;2023-12-14T00:13:33;106.63;;;41.75;;
52354;SDS011;38286;51.156;17.038;2023-12-14T00:15:59;119.95;;;43.70;;
52354;SDS011;38286;51.156;17.038;2023-12-14T00:18:25;121.55;;;43.42;;
52354;SDS011;38286;51.156;17.038;2023-12-14T00:20:51;112.75;;;43.97;;
52354;SDS011;38286;51.156;17.038;2023-12-14T00:23:18;112.00;;;43.03;;
52354;SDS011;38286;51.156;17.038;2023-12-14T00:25:44;98.38;;;40.42;;
52354;SDS011;38286;51.156;17.038;2023-12-14T00:28:10;117.85;;;43.20;;
52354;SDS011;38286;51.156;17.038;2023-12-14T00:30:35;110.47;;;42.33;;
52354;SDS011;38286;51.156;17.038;2023-12-14T00:33:01;121.60;;;42.45;;
52354;SDS011;38286;51.156;17.038;2023-12-14T00:35:27;128.45;;;43.17;;
52354;SDS011;38286;51.156;17.038;2023-12-14T00:37:53;129.55;;;45.42;;
52354;SDS011;38286;51.156;17.038;2023-12-14T00:40:19;129.30;;;45.15;;
52354;SDS011;38286;51.156;17.038;2023-12-14T00:42:45;127.57;;;42.92;;
52354;SDS011;38286;51.156;17.038;2023-12-14T00:45:11;139.40;;;47.42;;
52354;SDS011;38286;51.156;17.038;2023-12-14T00:47:37;127.45;;;43.35;;
52354;SDS011;38286;51.156;17.038;2023-12-14T00:50:03;122.85;;;43.47;;
52354;SDS011;38286;51.156;17.038;2023-12-14T00:52:30;119.38;;;43.85;;
52354;SDS011;38286;51.156;17.038;2023-12-14T00:54:56;122.70;;;43.33;;
52354;SDS011;38286;51.156;17.038;2023-12-14T00:57:22;119.20;;;43.03;;
52354;SDS011;38286;51.156;17.038;2023-12-14T00:59:48;140.30;;;45.50;;
52354;SDS011;38286;51.156;17.038;2023-12-14T01:02:14;123.93;;;44.35;;
52354;SDS011;38286;51.156;17.038;2023-12-14T01:04:40;119.20;;;42.90;;
52354;SDS011;38286;51.156;17.038;2023-12-14T01:07:06;126.35;;;43.47;;
52354;SDS011;38286;51.156;17.038;2023-12-14T01:09:31;134.60;;;46.13;;
52354;SDS011;38286;51.156;17.038;2023-12-14T01:11:57;132.23;;;44.47;;
52354;SDS011;38286;51.156;17.038;2023-12-14T01:14:23;127.88;;;43.92;;
52354;SDS011;38286;51.156;17.038;2023-12-14T01:16:49;117.57;;;39.33;;
52354;SDS011;38286;51.156;17.038;2023-12-14T01:19:15;123.97;;;41.83;;
52354;SDS011;38286;51.156;17.038;2023-12-14T01:21:41;115.82;;;39.63;;
52354;SDS011;38286;51.156;17.038;2023-12-14T01:24:07;129.55;;;42.65;;
52354;SDS011;38286;51.156;17.038;2023-12-14T01:26:33;121.05;;;44.50;;
52354;SDS011;38286;51.156;17.038;2023-12-14T01:28:59;128.80;;;43.20;;
52354;SDS011;38286;51.156;17.038;2023-12-14T01:31:25;121.63;;;42.08;;
52354;SDS011;38286;51.156;17.038;2023-12-14T01:33:51;125.55;;;42.60;;
52354;SDS011;38286;51.156;17.038;2023-12-14T01:36:21;140.88;;;44.38;;
52354;SDS011;38286;51.156;17.038;2023-12-14T01:38:47;129.55;;;43.30;;
52354;SDS011;38286;51.156;17.038;2023-12-14T01:41:13;125.78;;;43.83;;
52354;SDS011;38286;51.156;17.038;2023-12-14T01:43:39;126.70;;;44.40;;
52354;SDS011;38286;51.156;17.038;2023-12-14T01:46:05;131.50;;;44.58;;
52354;SDS011;38286;51.156;17.038;2023-12-14T01:48:31;130.50;;;43.63;;
52354;SDS011;38286;51.156;17.038;2023-12-14T01:50:57;119.18;;;42.63;;
52354;SDS011;38286;51.156;17.038;2023-12-14T01:53:23;132.20;;;43.35;;
52354;SDS011;38286;51.156;17.038;2023-12-14T01:55:49;141.18;;;44.63;;
52354;SDS011;38286;51.156;17.038;2023-12-14T01:58:15;136.80;;;43.65;;
52354;SDS011;38286;51.156;17.038;2023-12-14T02:03:48;136.25;;;44.35;;
52354;SDS011;38286;51.156;17.038;2023-12-14T02:06:15;142.25;;;44.92;;
52354;SDS011;38286;51.156;17.038;2023-12-14T02:08:41;143.27;;;46.17;;
52354;SDS011;38286;51.156;17.038;2023-12-14T02:11:07;141.85;;;46.33;;
52354;SDS011;38286;51.156;17.038;2023-12-14T02:13:33;146.23;;;45.80;;
52354;SDS011;38286;51.156;17.038;2023-12-14T02:15:59;139.23;;;45.38;;
52354;SDS011;38286;51.156;17.038;2023-12-14T02:18:25;129.32;;;43.60;;
52354;SDS011;38286;51.156;17.038;2023-12-14T02:20:52;136.35;;;44.50;;
52354;SDS011;38286;51.156;17.038;2023-12-14T02:23:17;125.43;;;45.88;;
52354;SDS011;38286;51.156;17.038;2023-12-14T02:25:43;124.22;;;43.13;;
52354;SDS011;38286;51.156;17.038;2023-12-14T02:28:09;123.43;;;43.65;;
52354;SDS011;38286;51.156;17.038;2023-12-14T02:30:35;127.00;;;41.90;;
52354;SDS011;38286;51.156;17.038;2023-12-14T02:33:01;123.00;;;42.83;;
52354;SDS011;38286;51.156;17.038;2023-12-14T02:35:27;126.75;;;44.90;;
52354;SDS011;38286;51.156;17.038;2023-12-14T02:37:53;126.60;;;41.80;;
52354;SDS011;38286;51.156;17.038;2023-12-14T02:40:20;132.38;;;44.38;;
52354;SDS011;38286;51.156;17.038;2023-12-14T02:42:46;115.18;;;41.45;;
52354;SDS011;38286;51.156;17.038;2023-12-14T02:45:12;125.75;;;43.40;;
52354;SDS011;38286;51.156;17.038;2023-12-14T02:47:37;120.60;;;40.88;;
52354;SDS011;38286;51.156;17.038;2023-12-14T02:50:04;121.22;;;39.03;;
52354;SDS011;38286;51.156;17.038;2023-12-14T02:52:30;117.80;;;39.55;;
52354;SDS011;38286;51.156;17.038;2023-12-14T02:54:56;117.88;;;39.78;;
52354;SDS011;38286;51.156;17.038;2023-12-14T02:57:22;123.30;;;40.58;;
52354;SDS011;38286;51.156;17.038;2023-12-14T02:59:48;112.53;;;41.25;;
52354;SDS011;38286;51.156;17.038;2023-12-14T03:02:14;112.88;;;40.97;;
52354;SDS011;38286;51.156;17.038;2023-12-14T03:04:40;105.97;;;37.47;;
52354;SDS011;38286;51.156;17.038;2023-12-14T03:07:06;109.07;;;38.08;;
52354;SDS011;38286;51.156;17.038;2023-12-14T03:09:32;116.18;;;40.45;;
52354;SDS011;38286;51.156;17.038;2023-12-14T03:11:59;113.93;;;39.75;;
52354;SDS011;38286;51.156;17.038;2023-12-14T03:14:26;118.85;;;38.10;;
52354;SDS011;38286;51.156;17.038;2023-12-14T03:16:51;112.18;;;37.03;;
52354;SDS011;38286;51.156;17.038;2023-12-14T03:19:18;112.45;;;38.40;;
52354;SDS011;38286;51.156;17.038;2023-12-14T03:21:43;111.95;;;37.88;;
52354;SDS011;38286;51.156;17.038;2023-12-14T03:24:10;107.60;;;36.83;;
52354;SDS011;38286;51.156;17.038;2023-12-14T03:26:35;123.63;;;38.60;;
52354;SDS011;38286;51.156;17.038;2023-12-14T03:29:02;117.60;;;38.50;;
52354;SDS011;38286;51.156;17.038;2023-12-14T03:31:27;116.15;;;37.47;;
52354;SDS011;38286;51.156;17.038;2023-12-14T03:33:53;111.90;;;36.22;;
52354;SDS011;38286;51.156;17.038;2023-12-14T03:36:19;119.68;;;37.95;;
52354;SDS011;38286;51.156;17.038;2023-12-14T03:38:45;119.65;;;37.35;;
52354;SDS011;38286;51.156;17.038;2023-12-14T03:41:12;94.88;;;33.30;;
52354;SDS011;38286;51.156;17.038;2023-12-14T03:43:38;107.57;;;33.90;;
52354;SDS011;38286;51.156;17.038;2023-12-14T03:46:04;107.03;;;37.25;;
52354;SDS011;38286;51.156;17.038;2023-12-14T03:48:32;100.10;;;34.47;;
52354;SDS011;38286;51.156;17.038;2023-12-14T03:51:01;103.35;;;34.83;;
52354;SDS011;38286;51.156;17.038;2023-12-14T03:53:29;98.13;;;33.35;;
52354;SDS011;38286;51.156;17.038;2023-12-14T03:55:55;93.22;;;33.30;;
52354;SDS011;38286;51.156;17.038;2023-12-14T03:58:21;93.25;;;33.78;;
52354;SDS011;38286;51.156;17.038;2023-12-14T04:00:47;104.88;;;34.42;;
52354;SDS011;38286;51.156;17.038;2023-12-14T04:03:13;102.90;;;33.70;;
52354;SDS011;38286;51.156;17.038;2023-12-14T04:05:38;97.32;;;34.00;;
52354;SDS011;38286;51.156;17.038;2023-12-14T04:08:05;96.38;;;32.05;;
52354;SDS011;38286;51.156;17.038;2023-12-14T04:10:31;95.22;;;33.70;;
52354;SDS011;38286;51.156;17.038;2023-12-14T04:12:57;102.82;;;33.63;;
52354;SDS011;38286;51.156;17.038;2023-12-14T04:15:22;87.07;;;29.98;;
52354;SDS011;38286;51.156;17.038;2023-12-14T04:17:48;82.75;;;30.15;;
52354;SDS011;38286;51.156;17.038;2023-12-14T04:20:14;81.78;;;32.88;;
52354;SDS011;38286;51.156;17.038;2023-12-14T04:22:42;81.85;;;31.83;;
52354;SDS011;38286;51.156;17.038;2023-12-14T04:25:11;78.53;;;30.85;;
52354;SDS011;38286;51.156;17.038;2023-12-14T04:27:37;80.07;;;31.15;;
52354;SDS011;38286;51.156;17.038;2023-12-14T04:30:03;80.70;;;29.50;;
52354;SDS011;38286;51.156;17.038;2023-12-14T04:32:30;75.03;;;27.85;;
52354;SDS011;38286;51.156;17.038;2023-12-14T04:34:56;75.05;;;28.95;;
52354;SDS011;38286;51.156;17.038;2023-12-14T04:37:22;76.47;;;28.50;;
52354;SDS011;38286;51.156;17.038;2023-12-14T04:39:47;69.20;;;29.35;;
52354;SDS011;38286;51.156;17.038;2023-12-14T04:42:13;76.20;;;29.17;;
52354;SDS011;38286;51.156;17.038;2023-12-14T04:44:39;78.32;;;31.15;;
52354;SDS011;38286;51.156;17.038;2023-12-14T04:47:05;78.38;;;31.77;;
52354;SDS011;38286;51.156;17.038;2023-12-14T04:49:32;75.63;;;30.85;;
52354;SDS011;38286;51.156;17.038;2023-12-14T04:51:58;72.10;;;30.38;;
52354;SDS011;38286;51.156;17.038;2023-12-14T04:54:23;76.20;;;30.85;;
52354;SDS011;38286;51.156;17.038;2023-12-14T04:56:49;76.97;;;30.17;;
52354;SDS011;38286;51.156;17.038;2023-12-14T04:59:15;77.38;;;29.92;;
52354;SDS011;38286;51.156;17.038;2023-12-14T05:01:41;78.43;;;30.90;;
52354;SDS011;38286;51.156;17.038;2023-12-14T05:04:07;77.00;;;32.28;;
52354;SDS011;38286;51.156;17.038;2023-12-14T05:06:33;78.72;;;31.60;;
52354;SDS011;38286;51.156;17.038;2023-12-14T05:09:00;73.85;;;29.90;;
52354;SDS011;38286;51.156;17.038;2023-12-14T05:11:29;77.55;;;31.15;;
52354;SDS011;38286;51.156;17.038;2023-12-14T05:14:14;79.25;;;30.40;;
52354;SDS011;38286;51.156;17.038;2023-12-14T05:16:40;74.72;;;29.30;;
52354;SDS011;38286;51.156;17.038;2023-12-14T05:19:05;81.15;;;28.73;;
52354;SDS011;38286;51.156;17.038;2023-12-14T05:21:31;80.68;;;31.13;;
52354;SDS011;38286;51.156;17.038;2023-12-14T05:23:57;81.30;;;30.83;;
52354;SDS011;38286;51.156;17.038;2023-12-14T05:26:23;83.07;;;29.80;;
52354;SDS011;38286;51.156;17.038;2023-12-14T05:28:49;77.63;;;30.73;;
52354;SDS011;38286;51.156;17.038;2023-12-14T05:31:15;84.05;;;31.80;;
52354;SDS011;38286;51.156;17.038;2023-12-14T05:33:41;82.65;;;32.35;;
52354;SDS011;38286;51.156;17.038;2023-12-14T05:36:07;72.47;;;29.42;;
52354;SDS011;38286;51.156;17.038;2023-12-14T05:38:37;76.82;;;29.17;;
52354;SDS011;38286;51.156;17.038;2023-12-14T05:41:04;73.68;;;28.98;;
52354;SDS011;38286;51.156;17.038;2023-12-14T05:43:30;74.45;;;30.58;;
52354;SDS011;38286;51.156;17.038;2023-12-14T05:45:56;70.15;;;29.00;;
52354;SDS011;38286;51.156;17.038;2023-12-14T05:48:22;71.13;;;27.70;;
52354;SDS011;38286;51.156;17.038;2023-12-14T05:50:48;65.93;;;28.27;;
52354;SDS011;38286;51.156;17.038;2023-12-14T05:53:14;72.53;;;28.45;;
52354;SDS011;38286;51.156;17.038;2023-12-14T05:55:41;71.22;;;27.92;;
52354;SDS011;38286;51.156;17.038;2023-12-14T05:58:07;72.53;;;27.85;;
52354;SDS011;38286;51.156;17.038;2023-12-14T06:00:33;73.40;;;27.63;;
52354;SDS011;38286;51.156;17.038;2023-12-14T06:03:01;66.57;;;26.90;;
52354;SDS011;38286;51.156;17.038;2023-12-14T06:05:27;60.88;;;25.13;;
52354;SDS011;38286;51.156;17.038;2023-12-14T06:07:53;65.47;;;26.08;;
52354;SDS011;38286;51.156;17.038;2023-12-14T06:10:19;77.75;;;28.60;;
52354;SDS011;38286;51.156;17.038;2023-12-14T06:12:46;66.18;;;26.40;;
52354;SDS011;38286;51.156;17.038;2023-12-14T06:15:12;72.45;;;27.85;;
52354;SDS011;38286;51.156;17.038;2023-12-14T06:17:39;68.45;;;27.02;;
52354;SDS011;38286;51.156;17.038;2023-12-14T06:20:07;63.53;;;28.30;;
52354;SDS011;38286;51.156;17.038;2023-12-14T06:22:35;66.50;;;26.38;;
52354;SDS011;38286;51.156;17.038;2023-12-14T06:25:02;68.00;;;27.23;;
52354;SDS011;38286;51.156;17.038;2023-12-14T06:27:31;66.55;;;28.17;;
52354;SDS011;38286;51.156;17.038;2023-12-14T06:29:57;70.85;;;29.33;;
52354;SDS011;38286;51.156;17.038;2023-12-14T06:32:23;74.53;;;27.52;;
52354;SDS011;38286;51.156;17.038;2023-12-14T06:34:49;64.65;;;25.88;;
52354;SDS011;38286;51.156;17.038;2023-12-14T06:37:15;71.55;;;28.58;;
52354;SDS011;38286;51.156;17.038;2023-12-14T06:39:41;68.25;;;29.05;;
52354;SDS011;38286;51.156;17.038;2023-12-14T06:42:07;67.68;;;28.42;;
52354;SDS011;38286;51.156;17.038;2023-12-14T06:44:34;65.13;;;25.98;;
52354;SDS011;38286;51.156;17.038;2023-12-14T06:46:59;61.97;;;25.23;;
52354;SDS011;38286;51.156;17.038;2023-12-14T06:49:25;59.78;;;23.73;;
52354;SDS011;38286;51.156;17.038;2023-12-14T06:51:51;63.53;;;25.45;;
52354;SDS011;38286;51.156;17.038;2023-12-14T06:54:17;62.67;;;23.95;;
52354;SDS011;38286;51.156;17.038;2023-12-14T06:56:43;60.80;;;25.30;;
52354;SDS011;38286;51.156;17.038;2023-12-14T06:59:09;64.65;;;25.23;;
52354;SDS011;38286;51.156;17.038;2023-12-14T07:01:35;59.60;;;23.35;;
52354;SDS011;38286;51.156;17.038;2023-12-14T07:04:01;69.40;;;26.45;;
52354;SDS011;38286;51.156;17.038;2023-12-14T07:06:30;65.63;;;27.05;;
52354;SDS011;38286;51.156;17.038;2023-12-14T07:08:56;65.38;;;24.95;;
52354;SDS011;38286;51.156;17.038;2023-12-14T07:11:22;60.15;;;23.75;;
52354;SDS011;38286;51.156;17.038;2023-12-14T07:13:48;62.17;;;25.30;;
52354;SDS011;38286;51.156;17.038;2023-12-14T07:16:14;69.93;;;25.63;;
52354;SDS011;38286;51.156;17.038;2023-12-14T07:18:40;68.15;;;26.48;;
52354;SDS011;38286;51.156;17.038;2023-12-14T07:21:07;79.88;;;27.40;;
52354;SDS011;38286;51.156;17.038;2023-12-14T07:23:33;67.82;;;25.35;;
52354;SDS011;38286;51.156;17.038;2023-12-14T07:26:00;70.32;;;26.60;;
52354;SDS011;38286;51.156;17.038;2023-12-14T07:28:26;75.25;;;26.40;;
52354;SDS011;38286;51.156;17.038;2023-12-14T07:30:52;67.88;;;26.45;;
52354;SDS011;38286;51.156;17.038;2023-12-14T07:33:18;68.78;;;26.42;;
52354;SDS011;38286;51.156;17.038;2023-12-14T07:35:44;79.50;;;28.20;;
52354;SDS011;38286;51.156;17.038;2023-12-14T07:38:10;75.10;;;27.15;;
52354;SDS011;38286;51.156;17.038;2023-12-14T07:40:36;70.45;;;26.67;;
52354;SDS011;38286;51.156;17.038;2023-12-14T07:43:04;71.20;;;27.40;;
52354;SDS011;38286;51.156;17.038;2023-12-14T07:45:30;66.97;;;24.98;;
52354;SDS011;38286;51.156;17.038;2023-12-14T07:47:56;68.60;;;25.02;;
52354;SDS011;38286;51.156;17.038;2023-12-14T07:50:23;75.22;;;27.23;;
52354;SDS011;38286;51.156;17.038;2023-12-14T07:52:49;72.28;;;28.42;;
52354;SDS011;38286;51.156;17.038;2023-12-14T07:55:15;81.57;;;29.15;;
52354;SDS011;38286;51.156;17.038;2023-12-14T07:57:41;79.18;;;27.90;;
52354;SDS011;38286;51.156;17.038;2023-12-14T08:00:07;81.32;;;29.67;;
52354;SDS011;38286;51.156;17.038;2023-12-14T08:02:36;91.53;;;32.30;;
52354;SDS011;38286;51.156;17.038;2023-12-14T08:05:03;88.25;;;32.25;;
52354;SDS011;38286;51.156;17.038;2023-12-14T08:07:30;84.45;;;30.50;;
52354;SDS011;38286;51.156;17.038;2023-12-14T08:09:57;79.95;;;29.88;;
52354;SDS011;38286;51.156;17.038;2023-12-14T08:12:23;74.63;;;27.95;;
52354;SDS011;38286;51.156;17.038;2023-12-14T08:14:50;78.35;;;29.75;;
52354;SDS011;38286;51.156;17.038;2023-12-14T08:17:16;83.15;;;29.55;;
52354;SDS011;38286;51.156;17.038;2023-12-14T08:19:42;79.13;;;28.52;;
52354;SDS011;38286;51.156;17.038;2023-12-14T08:22:09;78.63;;;29.45;;
52354;SDS011;38286;51.156;17.038;2023-12-14T08:24:43;79.63;;;29.38;;
52354;SDS011;38286;51.156;17.038;2023-12-14T08:27:09;85.65;;;30.77;;
52354;SDS011;38286;51.156;17.038;2023-12-14T08:29:35;73.60;;;28.90;;
52354;SDS011;38286;51.156;17.038;2023-12-14T08:32:01;70.13;;;25.85;;
52354;SDS011;38286;51.156;17.038;2023-12-14T08:34:27;69.57;;;26.42;;
52354;SDS011;38286;51.156;17.038;2023-12-14T08:36:54;67.75;;;25.92;;
52354;SDS011;38286;51.156;17.038;2023-12-14T08:39:19;65.15;;;24.73;;
52354;SDS011;38286;51.156;17.038;2023-12-14T08:41:46;70.75;;;27.20;;
52354;SDS011;38286;51.156;17.038;2023-12-14T08:44:12;70.53;;;27.70;;
52354;SDS011;38286;51.156;17.038;2023-12-14T08:46:40;71.05;;;27.85;;
52354;SDS011;38286;51.156;17.038;2023-12-14T08:49:06;65.50;;;27.17;;
52354;SDS011;38286;51.156;17.038;2023-12-14T08:51:32;70.00;;;28.45;;
52354;SDS011;38286;51.156;17.038;2023-12-14T08:53:58;68.03;;;28.02;;
52354;SDS011;38286;51.156;17.038;2023-12-14T08:56:24;70.38;;;29.30;;
52354;SDS011;38286;51.156;17.038;2023-12-14T08:58:50;64.75;;;26.45;;
52354;SDS011;38286;51.156;17.038;2023-12-14T09:01:20;67.45;;;27.42;;
52354;SDS011;38286;51.156;17.038;2023-12-14T09:03:46;66.05;;;26.92;;
52354;SDS011;38286;51.156;17.038;2023-12-14T09:06:12;60.17;;;26.65;;
52354;SDS011;38286;51.156;17.038;2023-12-14T09:08:40;61.15;;;25.77;;
52354;SDS011;38286;51.156;17.038;2023-12-14T09:11:06;62.30;;;25.08;;
52354;SDS011;38286;51.156;17.038;2023-12-14T09:13:32;62.22;;;25.75;;
52354;SDS011;38286;51.156;17.038;2023-12-14T09:15:58;63.90;;;26.77;;
52354;SDS011;38286;51.156;17.038;2023-12-14T09:18:24;62.75;;;26.20;;
52354;SDS011;38286;51.156;17.038;2023-12-14T09:20:50;64.30;;;27.88;;
52354;SDS011;38286;51.156;17.038;2023-12-14T09:23:16;66.50;;;26.80;;
52354;SDS011;38286;51.156;17.038;2023-12-14T09:25:42;63.75;;;26.60;;
52354;SDS011;38286;51.156;17.038;2023-12-14T09:28:08;67.10;;;27.85;;
52354;SDS011;38286;51.156;17.038;2023-12-14T09:30:34;67.13;;;27.20;;
52354;SDS011;38286;51.156;17.038;2023-12-14T09:33:00;64.85;;;28.10;;
52354;SDS011;38286;51.156;17.038;2023-12-14T09:35:26;55.50;;;25.90;;
52354;SDS011;38286;51.156;17.038;2023-12-14T09:37:52;60.22;;;25.67;;
52354;SDS011;38286;51.156;17.038;2023-12-14T09:40:19;51.05;;;22.55;;
52354;SDS011;38286;51.156;17.038;2023-12-14T09:42:45;55.58;;;23.52;;
52354;SDS011;38286;51.156;17.038;2023-12-14T09:45:11;51.35;;;23.95;;
52354;SDS011;38286;51.156;17.038;2023-12-14T09:47:37;54.22;;;23.55;;
52354;SDS011;38286;51.156;17.038;2023-12-14T09:50:04;49.70;;;23.95;;
52354;SDS011;38286;51.156;17.038;2023-12-14T09:52:30;46.33;;;21.52;;
52354;SDS011;38286;51.156;17.038;2023-12-14T09:54:58;46.00;;;22.25;;
52354;SDS011;38286;51.156;17.038;2023-12-14T09:57:25;43.05;;;21.08;;
52354;SDS011;38286;51.156;17.038;2023-12-14T09:59:52;43.78;;;19.83;;
52354;SDS011;38286;51.156;17.038;2023-12-14T10:02:18;47.05;;;21.42;;
52354;SDS011;38286;51.156;17.038;2023-12-14T10:04:46;42.80;;;22.63;;
52354;SDS011;38286;51.156;17.038;2023-12-14T10:07:12;44.28;;;21.58;;
52354;SDS011;38286;51.156;17.038;2023-12-14T10:09:38;43.60;;;20.50;;
52354;SDS011;38286;51.156;17.038;2023-12-14T10:12:05;35.17;;;18.30;;
52354;SDS011;38286;51.156;17.038;2023-12-14T10:14:35;39.65;;;19.88;;
52354;SDS011;38286;51.156;17.038;2023-12-14T10:17:16;36.50;;;18.15;;
52354;SDS011;38286;51.156;17.038;2023-12-14T10:19:45;39.03;;;18.08;;
52354;SDS011;38286;51.156;17.038;2023-12-14T10:22:15;35.40;;;18.83;;
52354;SDS011;38286;51.156;17.038;2023-12-14T10:24:46;38.13;;;18.85;;
52354;SDS011;38286;51.156;17.038;2023-12-14T10:27:14;38.53;;;18.27;;
52354;SDS011;38286;51.156;17.038;2023-12-14T10:29:41;39.25;;;17.23;;
52354;SDS011;38286;51.156;17.038;2023-12-14T10:32:09;38.28;;;18.33;;
52354;SDS011;38286;51.156;17.038;2023-12-14T10:34:37;34.53;;;18.58;;
52354;SDS011;38286;51.156;17.038;2023-12-14T10:37:04;35.65;;;17.95;;
52354;SDS011;38286;51.156;17.038;2023-12-14T10:39:32;36.55;;;18.60;;
52354;SDS011;38286;51.156;17.038;2023-12-14T10:41:59;30.77;;;16.92;;
52354;SDS011;38286;51.156;17.038;2023-12-14T10:44:28;38.55;;;19.55;;
52354;SDS011;38286;51.156;17.038;2023-12-14T10:46:54;44.30;;;21.30;;
52354;SDS011;38286;51.156;17.038;2023-12-14T10:49:24;47.10;;;20.90;;
52354;SDS011;38286;51.156;17.038;2023-12-14T10:51:54;45.88;;;21.92;;
52354;SDS011;38286;51.156;17.038;2023-12-14T10:54:23;41.85;;;20.75;;
52354;SDS011;38286;51.156;17.038;2023-12-14T10:56:50;45.47;;;21.50;;
52354;SDS011;38286;51.156;17.038;2023-12-14T10:59:20;46.83;;;21.45;;
52354;SDS011;38286;51.156;17.038;2023-12-14T11:01:51;48.22;;;24.00;;
52354;SDS011;38286;51.156;17.038;2023-12-14T11:04:23;47.00;;;21.92;;
52354;SDS011;38286;51.156;17.038;2023-12-14T11:06:55;42.58;;;21.23;;
52354;SDS011;38286;51.156;17.038;2023-12-14T11:09:23;42.80;;;20.13;;
52354;SDS011;38286;51.156;17.038;2023-12-14T11:14:19;44.25;;;21.48;;
52354;SDS011;38286;51.156;17.038;2023-12-14T11:16:50;47.13;;;22.90;;
52354;SDS011;38286;51.156;17.038;2023-12-14T11:24:21;57.17;;;25.75;;
52354;SDS011;38286;51.156;17.038;2023-12-14T11:26:48;58.88;;;26.25;;
52354;SDS011;38286;51.156;17.038;2023-12-14T11:29:15;58.63;;;27.40;;
52354;SDS011;38286;51.156;17.038;2023-12-14T11:31:42;57.63;;;26.17;;
52354;SDS011;38286;51.156;17.038;2023-12-14T11:34:08;58.60;;;26.50;;
52354;SDS011;38286;51.156;17.038;2023-12-14T11:36:34;50.40;;;25.60;;
52354;SDS011;38286;51.156;17.038;2023-12-14T11:39:01;52.53;;;24.65;;
52354;SDS011;38286;51.156;17.038;2023-12-14T11:41:26;54.65;;;24.88;;
52354;SDS011;38286;51.156;17.038;2023-12-14T11:43:54;56.65;;;26.58;;
52354;SDS011;38286;51.156;17.038;2023-12-14T11:46:20;56.65;;;27.05;;
52354;SDS011;38286;51.156;17.038;2023-12-14T11:48:47;58.40;;;26.65;;
52354;SDS011;38286;51.156;17.038;2023-12-14T11:51:16;54.28;;;25.75;;
52354;SDS011;38286;51.156;17.038;2023-12-14T11:53:46;47.97;;;22.73;;
52354;SDS011;38286;51.156;17.038;2023-12-14T11:56:14;54.45;;;24.45;;
52354;SDS011;38286;51.156;17.038;2023-12-14T11:58:43;49.28;;;23.40;;
52354;SDS011;38286;51.156;17.038;2023-12-14T12:01:11;51.45;;;23.98;;
52354;SDS011;38286;51.156;17.038;2023-12-14T12:03:37;50.17;;;23.90;;
52354;SDS011;38286;51.156;17.038;2023-12-14T12:06:03;46.65;;;22.50;;
52354;SDS011;38286;51.156;17.038;2023-12-14T12:08:29;48.03;;;23.10;;
52354;SDS011;38286;51.156;17.038;2023-12-14T12:10:56;43.38;;;21.27;;
52354;SDS011;38286;51.156;17.038;2023-12-14T12:13:22;50.65;;;24.40;;
52354;SDS011;38286;51.156;17.038;2023-12-14T12:15:48;46.95;;;22.35;;
52354;SDS011;38286;51.156;17.038;2023-12-14T12:18:16;48.53;;;22.42;;
52354;SDS011;38286;51.156;17.038;2023-12-14T12:20:42;54.53;;;25.63;;
52354;SDS011;38286;51.156;17.038;2023-12-14T12:23:08;48.47;;;22.80;;
52354;SDS011;38286;51.156;17.038;2023-12-14T12:25:34;50.80;;;22.98;;
52354;SDS011;38286;51.156;17.038;2023-12-14T12:28:01;56.20;;;24.45;;
52354;SDS011;38286;51.156;17.038;2023-12-14T12:30:28;56.00;;;24.30;;
52354;SDS011;38286;51.156;17.038;2023-12-14T12:33:13;58.23;;;24.10;;
52354;SDS011;38286;51.156;17.038;2023-12-14T12:35:39;54.00;;;25.77;;
52354;SDS011;38286;51.156;17.038;2023-12-14T12:38:05;58.08;;;24.38;;
52354;SDS011;38286;51.156;17.038;2023-12-14T12:40:31;66.05;;;25.80;;
52354;SDS011;38286;51.156;17.038;2023-12-14T12:42:58;54.00;;;24.83;;
52354;SDS011;38286;51.156;17.038;2023-12-14T12:45:24;57.78;;;24.15;;
52354;SDS011;38286;51.156;17.038;2023-12-14T12:47:53;54.25;;;24.38;;
52354;SDS011;38286;51.156;17.038;2023-12-14T12:50:19;58.80;;;25.42;;
52354;SDS011;38286;51.156;17.038;2023-12-14T12:52:48;54.08;;;23.92;;
52354;SDS011;38286;51.156;17.038;2023-12-14T12:55:15;56.40;;;23.52;;
52354;SDS011;38286;51.156;17.038;2023-12-14T12:57:41;54.90;;;25.60;;
52354;SDS011;38286;51.156;17.038;2023-12-14T13:00:07;53.70;;;23.50;;
52354;SDS011;38286;51.156;17.038;2023-12-14T13:02:37;53.67;;;22.98;;
52354;SDS011;38286;51.156;17.038;2023-12-14T13:05:05;53.55;;;25.40;;
52354;SDS011;38286;51.156;17.038;2023-12-14T13:07:33;54.70;;;25.13;;
52354;SDS011;38286;51.156;17.038;2023-12-14T13:10:02;53.90;;;24.40;;
52354;SDS011;38286;51.156;17.038;2023-12-14T13:12:29;56.97;;;25.98;;
52354;SDS011;38286;51.156;17.038;2023-12-14T13:14:55;68.03;;;28.45;;
52354;SDS011;38286;51.156;17.038;2023-12-14T13:17:21;55.92;;;25.77;;
52354;SDS011;38286;51.156;17.038;2023-12-14T13:19:48;58.72;;;25.77;;
52354;SDS011;38286;51.156;17.038;2023-12-14T13:22:14;55.67;;;25.15;;
52354;SDS011;38286;51.156;17.038;2023-12-14T13:24:40;59.33;;;25.30;;
52354;SDS011;38286;51.156;17.038;2023-12-14T13:27:06;53.65;;;23.83;;
52354;SDS011;38286;51.156;17.038;2023-12-14T13:29:32;59.75;;;26.60;;
52354;SDS011;38286;51.156;17.038;2023-12-14T13:32:00;52.58;;;23.13;;
52354;SDS011;38286;51.156;17.038;2023-12-14T13:34:26;51.22;;;23.00;;
52354;SDS011;38286;51.156;17.038;2023-12-14T13:36:56;51.70;;;22.83;;
52354;SDS011;38286;51.156;17.038;2023-12-14T13:39:26;52.72;;;23.13;;
52354;SDS011;38286;51.156;17.038;2023-12-14T13:41:53;51.15;;;21.58;;
52354;SDS011;38286;51.156;17.038;2023-12-14T13:44:19;50.35;;;20.40;;
52354;SDS011;38286;51.156;17.038;2023-12-14T13:46:45;52.35;;;21.17;;
52354;SDS011;38286;51.156;17.038;2023-12-14T13:49:10;53.88;;;21.85;;
52354;SDS011;38286;51.156;17.038;2023-12-14T13:51:36;52.33;;;22.17;;
52354;SDS011;38286;51.156;17.038;2023-12-14T13:54:02;52.00;;;22.15;;
52354;SDS011;38286;51.156;17.038;2023-12-14T13:56:28;55.97;;;23.23;;
52354;SDS011;38286;51.156;17.038;2023-12-14T13:58:54;64.70;;;26.90;;
52354;SDS011;38286;51.156;17.038;2023-12-14T14:01:20;57.30;;;25.17;;
52354;SDS011;38286;51.156;17.038;2023-12-14T14:03:46;60.58;;;24.92;;
52354;SDS011;38286;51.156;17.038;2023-12-14T14:06:13;58.75;;;25.90;;
52354;SDS011;38286;51.156;17.038;2023-12-14T14:08:39;67.03;;;27.67;;
52354;SDS011;38286;51.156;17.038;2023-12-14T14:11:05;64.60;;;25.45;;
52354;SDS011;38286;51.156;17.038;2023-12-14T14:13:31;65.28;;;26.80;;